Time;durP1;ratioP1;P1;durP2;ratioP2;P2;SDS_P1;SDS_P2;PMS_P1;PMS_P2;Temp;Humidity;BMP_temperature;BMP_pressure;BME280_temperature;BME280_humidity;BME280_pressure;Samples;Min_cycle;Max_cycle;Signal;HPM_P1;HPM_P2
2022/09/22 00:00:42;;;;;;;6.85;1.92;;;;;;;;;;5002766;28;20062;-58
2022/09/22 00:03:08;;;;;;;4.50;2.17;;;;;;;;;;5008313;28;20033;-58
2022/09/22 00:05:34;;;;;;;2.40;1.50;;;;;;;;;;5005352;28;20049;-58
2022/09/22 00:08:00;;;;;;;4.07;1.90;;;;;;;;;;5008974;28;20109;-58
2022/09/22 00:10:27;;;;;;;5.68;1.70;;;;;;;;;;5005310;28;20034;-58
2022/09/22 00:12:53;;;;;;;4.25;1.75;;;;;;;;;;5008575;28;20038;-58
2022/09/22 00:15:19;;;;;;;5.25;1.75;;;;;;;;;;5003885;28;20062;-58
2022/09/22 00:17:45;;;;;;;3.72;1.83;;;;;;;;;;5007421;28;20201;-58
2022/09/22 00:20:13;;;;;;;3.50;1.63;;;;;;;;;;5004321;28;20062;-57
2022/09/22 00:22:39;;;;;;;3.60;1.70;;;;;;;;;;5007812;28;20104;-58
2022/09/22 00:25:07;;;;;;;5.93;2.28;;;;;;;;;;5006291;28;20061;-58
2022/09/22 00:27:33;;;;;;;2.97;1.65;;;;;;;;;;5006822;28;20030;-58
2022/09/22 00:29:59;;;;;;;4.72;2.50;;;;;;;;;;5006529;28;20383;-58
2022/09/22 00:32:25;;;;;;;4.28;1.70;;;;;;;;;;5007079;28;20068;-58
2022/09/22 00:34:51;;;;;;;3.42;1.90;;;;;;;;;;5004113;28;20049;-58
2022/09/22 00:37:17;;;;;;;2.80;2.03;;;;;;;;;;5008186;28;20034;-58
2022/09/22 00:39:43;;;;;;;5.95;1.92;;;;;;;;;;5002516;28;20534;-58
2022/09/22 00:42:11;;;;;;;4.13;2.00;;;;;;;;;;5010063;28;20494;-58
2022/09/22 00:44:43;;;;;;;6.13;1.80;;;;;;;;;;5004829;28;20038;-58
2022/09/22 00:47:24;;;;;;;3.72;1.83;;;;;;;;;;5003507;28;20045;-58
2022/09/22 00:49:56;;;;;;;4.50;1.67;;;;;;;;;;5004884;28;20046;-58
2022/09/22 00:52:26;;;;;;;3.35;1.70;;;;;;;;;;5007834;28;20490;-58
2022/09/22 00:54:55;;;;;;;9.02;2.03;;;;;;;;;;5005880;28;20532;-58
2022/09/22 00:57:24;;;;;;;4.32;1.67;;;;;;;;;;5008916;28;20030;-58
2022/09/22 00:59:51;;;;;;;3.50;2.20;;;;;;;;;;5003564;28;20134;-58
2022/09/22 01:02:17;;;;;;;4.53;1.80;;;;;;;;;;5006699;28;20359;-58
2022/09/22 01:04:43;;;;;;;6.13;1.85;;;;;;;;;;5008261;28;20044;-58
2022/09/22 01:07:11;;;;;;;4.47;1.98;;;;;;;;;;5006849;28;20088;-58
2022/09/22 01:09:37;;;;;;;11.88;2.00;;;;;;;;;;5004168;28;20038;-58
2022/09/22 01:12:03;;;;;;;6.15;1.80;;;;;;;;;;5006879;28;20462;-58
2022/09/22 01:14:41;;;;;;;5.35;2.05;;;;;;;;;;5006482;28;20034;-58
2022/09/22 01:17:28;;;;;;;5.85;1.80;;;;;;;;;;5004315;28;20482;-58
2022/09/22 01:20:25;;;;;;;3.28;1.65;;;;;;;;;;5007208;28;20042;-58
2022/09/22 01:23:19;;;;;;;3.92;1.92;;;;;;;;;;5010056;28;20030;-57
2022/09/22 01:26:07;;;;;;;3.92;1.70;;;;;;;;;;5004705;28;20384;-58
2022/09/22 01:28:58;;;;;;;3.17;1.63;;;;;;;;;;5006901;28;20384;-58
2022/09/22 01:31:51;;;;;;;5.82;1.65;;;;;;;;;;5005296;28;20470;-58
2022/09/22 01:34:34;;;;;;;3.05;1.60;;;;;;;;;;5007782;28;20481;-58
2022/09/22 01:37:13;;;;;;;6.78;2.20;;;;;;;;;;5006485;28;20114;-58
2022/09/22 01:39:50;;;;;;;2.83;1.70;;;;;;;;;;5003866;28;20129;-58
2022/09/22 01:42:26;;;;;;;3.70;1.95;;;;;;;;;;5005260;28;20049;-58
2022/09/22 01:44:55;;;;;;;4.03;1.50;;;;;;;;;;5005213;28;20038;-58
2022/09/22 01:47:24;;;;;;;3.33;1.65;;;;;;;;;;5006230;28;20082;-58
2022/09/22 01:49:53;;;;;;;5.18;1.85;;;;;;;;;;5005530;28;20120;-58
2022/09/22 01:52:24;;;;;;;4.82;2.60;;;;;;;;;;5005080;28;20034;-58
2022/09/22 01:55:07;;;;;;;4.70;2.00;;;;;;;;;;5003164;28;20057;-58
2022/09/22 01:57:39;;;;;;;3.08;1.73;;;;;;;;;;5003565;28;20554;-58
2022/09/22 02:00:09;;;;;;;2.17;1.92;;;;;;;;;;5004076;28;20042;-58
2022/09/22 02:02:39;;;;;;;7.18;1.83;;;;;;;;;;5005751;28;20045;-58
2022/09/22 02:05:10;;;;;;;3.53;1.90;;;;;;;;;;5004730;28;20176;-58
2022/09/22 02:07:41;;;;;;;5.45;2.15;;;;;;;;;;5005143;28;20356;-58
2022/09/22 02:10:10;;;;;;;6.53;1.83;;;;;;;;;;5004775;28;20038;-58
2022/09/22 02:12:36;;;;;;;4.68;1.70;;;;;;;;;;5004273;28;20025;-58
2022/09/22 02:15:58;;;;;;;2.78;1.30;;;;;;;;;;5005412;28;20448;-58
2022/09/22 02:18:00;;;;;;;4.47;1.55;;;;;;;;;;5003538;28;20036;-58
2022/09/22 02:20:26;;;;;;;4.45;1.90;;;;;;;;;;5002076;28;20045;-58
2022/09/22 02:22:53;;;;;;;8.57;1.90;;;;;;;;;;5004380;28;20501;-59
2022/09/22 02:25:21;;;;;;;5.05;1.88;;;;;;;;;;5004879;28;20495;-58
2022/09/22 02:27:47;;;;;;;5.53;1.67;;;;;;;;;;5004934;28;22203;-58
2022/09/22 02:30:13;;;;;;;3.05;1.60;;;;;;;;;;5003075;28;20092;-58
2022/09/22 02:32:45;;;;;;;7.53;1.95;;;;;;;;;;5004892;28;20030;-58
2022/09/22 02:35:11;;;;;;;6.78;1.70;;;;;;;;;;5003587;28;20410;-58
2022/09/22 02:37:43;;;;;;;11.30;2.00;;;;;;;;;;5007052;28;20030;-57
2022/09/22 02:40:24;;;;;;;5.75;1.80;;;;;;;;;;4987544;28;20090;-57
2022/09/22 02:43:11;;;;;;;8.05;2.00;;;;;;;;;;4987055;28;20050;-58
2022/09/22 02:45:50;;;;;;;2.83;2.00;;;;;;;;;;4997341;28;20049;-58
2022/09/22 02:48:24;;;;;;;6.60;1.90;;;;;;;;;;5005737;28;20048;-58
2022/09/22 02:50:51;;;;;;;3.95;1.90;;;;;;;;;;5003606;28;20058;-58
2022/09/22 02:53:17;;;;;;;2.33;1.70;;;;;;;;;;5003789;28;20060;-58
2022/09/22 02:55:44;;;;;;;6.93;2.83;;;;;;;;;;5002528;28;20042;-58
2022/09/22 02:58:15;;;;;;;5.15;2.25;;;;;;;;;;5005469;28;20079;-58
2022/09/22 03:00:41;;;;;;;7.00;2.00;;;;;;;;;;4985252;28;20505;-58
2022/09/22 03:03:06;;;;;;;3.05;2.15;;;;;;;;;;4981221;28;20034;-58
2022/09/22 03:05:32;;;;;;;4.90;2.00;;;;;;;;;;4984972;28;20076;-59
2022/09/22 03:07:58;;;;;;;3.55;1.95;;;;;;;;;;4987891;28;20031;-59
2022/09/22 03:10:24;;;;;;;3.97;2.00;;;;;;;;;;4989314;28;20049;-60
2022/09/22 03:12:49;;;;;;;4.82;2.13;;;;;;;;;;4989158;28;20042;-59
2022/09/22 03:15:15;;;;;;;4.32;2.00;;;;;;;;;;4988463;28;20035;-59
2022/09/22 03:17:41;;;;;;;5.72;1.52;;;;;;;;;;4988439;28;20026;-58
2022/09/22 03:20:09;;;;;;;4.38;1.70;;;;;;;;;;4990020;28;20047;-59
2022/09/22 03:22:35;;;;;;;2.47;1.73;;;;;;;;;;4990172;28;20030;-59
2022/09/22 03:25:01;;;;;;;2.42;1.60;;;;;;;;;;5000425;28;20097;-58
2022/09/22 03:27:27;;;;;;;3.47;1.80;;;;;;;;;;5007308;28;20037;-59
2022/09/22 03:29:53;;;;;;;3.83;2.10;;;;;;;;;;5007811;28;20048;-59
2022/09/22 03:32:21;;;;;;;3.08;1.80;;;;;;;;;;5008872;28;20582;-58
2022/09/22 03:34:47;;;;;;;2.33;1.83;;;;;;;;;;5005850;28;20041;-59
2022/09/22 03:37:13;;;;;;;6.57;1.80;;;;;;;;;;5010260;28;20076;-59
2022/09/22 03:39:39;;;;;;;3.33;1.67;;;;;;;;;;5006982;28;20057;-58
2022/09/22 03:42:05;;;;;;;4.63;1.90;;;;;;;;;;5006807;28;20068;-59
2022/09/22 03:44:30;;;;;;;3.50;1.90;;;;;;;;;;5007261;28;20042;-59
2022/09/22 03:46:56;;;;;;;2.83;1.50;;;;;;;;;;5008327;28;20139;-58
2022/09/22 03:49:23;;;;;;;4.70;1.70;;;;;;;;;;5007718;28;20100;-59
2022/09/22 03:51:48;;;;;;;2.83;1.80;;;;;;;;;;5005385;28;20068;-59
2022/09/22 03:54:14;;;;;;;5.70;2.00;;;;;;;;;;5008168;28;20057;-58
2022/09/22 03:56:39;;;;;;;4.53;1.80;;;;;;;;;;5008344;28;20441;-58
2022/09/22 03:59:05;;;;;;;2.08;1.33;;;;;;;;;;5005514;28;20042;-59
2022/09/22 04:01:31;;;;;;;3.90;1.92;;;;;;;;;;5008546;28;20413;-58
2022/09/22 04:03:56;;;;;;;4.60;1.60;;;;;;;;;;5007012;28;20054;-59
2022/09/22 04:06:22;;;;;;;4.03;1.77;;;;;;;;;;5009276;28;20057;-59
2022/09/22 04:08:48;;;;;;;2.92;1.50;;;;;;;;;;5006908;28;20030;-58
2022/09/22 04:11:14;;;;;;;1.50;1.40;;;;;;;;;;5008986;28;20117;-59
2022/09/22 04:13:39;;;;;;;5.95;2.10;;;;;;;;;;5007260;28;20478;-59
2022/09/22 04:16:05;;;;;;;3.53;1.92;;;;;;;;;;5007889;28;20360;-59
2022/09/22 04:18:31;;;;;;;10.38;2.65;;;;;;;;;;5006288;28;20038;-59
2022/09/22 04:20:58;;;;;;;4.78;1.70;;;;;;;;;;5008182;28;20042;-59
2022/09/22 04:23:25;;;;;;;3.40;1.80;;;;;;;;;;5008765;28;20083;-59
2022/09/22 04:25:51;;;;;;;8.15;2.80;;;;;;;;;;5005497;28;20137;-59
2022/09/22 04:28:17;;;;;;;4.43;1.67;;;;;;;;;;5007374;28;20591;-58
2022/09/22 04:30:42;;;;;;;4.88;1.70;;;;;;;;;;5007184;28;20470;-59
2022/09/22 04:33:09;;;;;;;1.70;1.60;;;;;;;;;;5006035;28;20091;-59
2022/09/22 04:35:36;;;;;;;2.10;1.35;;;;;;;;;;5007687;28;20074;-58
2022/09/22 04:38:02;;;;;;;5.22;1.83;;;;;;;;;;5007120;28;20068;-59
2022/09/22 04:40:28;;;;;;;3.92;1.73;;;;;;;;;;5006945;28;20042;-58
2022/09/22 04:42:54;;;;;;;4.28;2.45;;;;;;;;;;5006481;28;20022;-58
2022/09/22 04:45:19;;;;;;;8.20;1.70;;;;;;;;;;5003788;28;20065;-59
2022/09/22 04:47:46;;;;;;;2.08;1.42;;;;;;;;;;5008786;28;20041;-59
2022/09/22 04:50:13;;;;;;;3.22;1.88;;;;;;;;;;5006234;28;20034;-58
2022/09/22 04:52:39;;;;;;;6.07;1.65;;;;;;;;;;5007494;28;20422;-58
2022/09/22 04:55:05;;;;;;;2.25;1.75;;;;;;;;;;5003157;28;20045;-58
2022/09/22 04:57:30;;;;;;;9.90;2.17;;;;;;;;;;5006690;28;20064;-58
2022/09/22 04:59:56;;;;;;;2.95;1.70;;;;;;;;;;5005467;28;20116;-59
2022/09/22 05:02:22;;;;;;;3.28;1.73;;;;;;;;;;5006727;28;20034;-59
2022/09/22 05:04:47;;;;;;;5.20;2.00;;;;;;;;;;5008012;28;20038;-56
2022/09/22 05:07:13;;;;;;;7.03;1.58;;;;;;;;;;5003758;28;20061;-58
2022/09/22 05:09:39;;;;;;;2.53;1.40;;;;;;;;;;5004715;28;20064;-59
2022/09/22 05:12:04;;;;;;;5.65;1.65;;;;;;;;;;5005789;28;20104;-59
2022/09/22 05:14:31;;;;;;;11.65;2.60;;;;;;;;;;5005935;28;20573;-59
2022/09/22 05:16:57;;;;;;;6.30;1.90;;;;;;;;;;5005638;28;20649;-59
2022/09/22 05:19:22;;;;;;;11.60;2.45;;;;;;;;;;5005594;28;20030;-59
2022/09/22 05:21:48;;;;;;;2.90;2.13;;;;;;;;;;4997688;28;20038;-59
2022/09/22 05:24:13;;;;;;;3.85;1.70;;;;;;;;;;4999415;28;20038;-59
2022/09/22 05:26:39;;;;;;;4.30;1.70;;;;;;;;;;4983516;28;20034;-59
2022/09/22 05:29:05;;;;;;;3.60;1.60;;;;;;;;;;4983184;28;20058;-59
2022/09/22 05:31:31;;;;;;;10.68;1.80;;;;;;;;;;4981430;28;20049;-58
2022/09/22 05:33:57;;;;;;;2.40;1.40;;;;;;;;;;4984567;28;20096;-59
2022/09/22 05:36:23;;;;;;;3.42;1.90;;;;;;;;;;5003963;28;20033;-59
2022/09/22 05:38:48;;;;;;;4.07;1.83;;;;;;;;;;5002879;28;20505;-58
2022/09/22 05:41:14;;;;;;;2.92;1.58;;;;;;;;;;5004576;28;20076;-59
2022/09/22 05:43:39;;;;;;;4.43;1.65;;;;;;;;;;5004209;28;20722;-59
2022/09/22 05:46:05;;;;;;;4.53;1.85;;;;;;;;;;5004530;28;20054;-59
2022/09/22 05:48:30;;;;;;;4.60;1.83;;;;;;;;;;5001752;28;20095;-58
2022/09/22 05:50:56;;;;;;;11.68;1.95;;;;;;;;;;5001573;28;20497;-59
2022/09/22 05:53:21;;;;;;;5.55;2.40;;;;;;;;;;5004017;28;20022;-59
2022/09/22 05:55:47;;;;;;;3.47;1.77;;;;;;;;;;4999967;28;20061;-59
2022/09/22 05:58:13;;;;;;;4.63;1.73;;;;;;;;;;5002222;28;20046;-59
2022/09/22 06:00:39;;;;;;;3.28;1.67;;;;;;;;;;5004513;28;20042;-59
2022/09/22 06:03:05;;;;;;;6.68;1.73;;;;;;;;;;4998415;28;20030;-59
2022/09/22 06:05:30;;;;;;;3.45;1.67;;;;;;;;;;5002234;28;20050;-59
2022/09/22 06:08:02;;;;;;;4.45;1.60;;;;;;;;;;5001903;28;20030;-59
2022/09/22 06:10:29;;;;;;;3.03;1.75;;;;;;;;;;5003075;28;20050;-59
2022/09/22 06:13:03;;;;;;;1.90;1.75;;;;;;;;;;5003009;28;20038;-58
2022/09/22 06:15:32;;;;;;;6.15;1.67;;;;;;;;;;5003994;28;20457;-59
2022/09/22 06:17:59;;;;;;;6.40;2.78;;;;;;;;;;5003567;28;20399;-59
2022/09/22 06:20:25;;;;;;;5.45;1.80;;;;;;;;;;5000627;28;20052;-59
2022/09/22 06:22:50;;;;;;;5.00;1.80;;;;;;;;;;5003939;28;20038;-59
2022/09/22 06:25:16;;;;;;;9.82;1.73;;;;;;;;;;5001678;28;20437;-60
2022/09/22 06:27:42;;;;;;;3.08;1.65;;;;;;;;;;5003249;28;20030;-60
2022/09/22 06:30:10;;;;;;;2.72;1.70;;;;;;;;;;5006580;28;20097;-59
2022/09/22 06:32:39;;;;;;;4.30;1.88;;;;;;;;;;5005112;28;20038;-59
2022/09/22 06:35:06;;;;;;;4.45;1.65;;;;;;;;;;5003003;28;20034;-59
2022/09/22 06:37:32;;;;;;;4.35;1.60;;;;;;;;;;5005576;28;20033;-59
2022/09/22 06:39:58;;;;;;;5.25;1.63;;;;;;;;;;5004889;28;20034;-59
2022/09/22 06:42:24;;;;;;;8.05;1.95;;;;;;;;;;5001060;28;20054;-59
2022/09/22 06:44:49;;;;;;;6.30;1.52;;;;;;;;;;5003589;28;20085;-58
2022/09/22 06:47:15;;;;;;;5.90;1.88;;;;;;;;;;5004429;28;20050;-59
2022/09/22 06:49:41;;;;;;;4.05;2.05;;;;;;;;;;5005154;28;20089;-59
2022/09/22 06:52:11;;;;;;;4.72;1.92;;;;;;;;;;5007140;28;20041;-59
2022/09/22 06:54:39;;;;;;;6.22;1.50;;;;;;;;;;5005908;28;20169;-59
2022/09/22 06:57:05;;;;;;;4.13;2.10;;;;;;;;;;5001728;28;20034;-59
2022/09/22 06:59:32;;;;;;;6.03;1.90;;;;;;;;;;5003388;28;20112;-59
2022/09/22 07:01:57;;;;;;;3.83;2.00;;;;;;;;;;5001684;28;20434;-59
2022/09/22 07:04:23;;;;;;;5.15;1.77;;;;;;;;;;5003799;28;20066;-59
2022/09/22 07:06:49;;;;;;;8.38;2.33;;;;;;;;;;5004203;28;20076;-58
2022/09/22 07:09:15;;;;;;;4.70;1.65;;;;;;;;;;5007009;28;20488;-59
2022/09/22 07:11:41;;;;;;;4.68;1.88;;;;;;;;;;5003589;28;20532;-59
2022/09/22 07:14:07;;;;;;;7.65;2.22;;;;;;;;;;5004391;28;20045;-59
2022/09/22 07:16:33;;;;;;;7.68;2.10;;;;;;;;;;5003243;28;20033;-60
2022/09/22 07:18:59;;;;;;;4.20;1.70;;;;;;;;;;5005023;28;20115;-60
2022/09/22 07:21:31;;;;;;;6.07;1.98;;;;;;;;;;5006773;28;20474;-59
2022/09/22 07:23:57;;;;;;;13.70;1.92;;;;;;;;;;5004902;28;20041;-60
2022/09/22 07:26:37;;;;;;;3.45;1.60;;;;;;;;;;5006273;28;20040;-59
2022/09/22 07:29:12;;;;;;;9.35;2.55;;;;;;;;;;5006517;28;20065;-59
2022/09/22 07:31:38;;;;;;;6.15;2.13;;;;;;;;;;5003855;28;20061;-59
2022/09/22 07:34:03;;;;;;;7.10;2.10;;;;;;;;;;5004169;28;20038;-60
2022/09/22 07:36:31;;;;;;;9.23;1.83;;;;;;;;;;5005855;28;20029;-59
2022/09/22 07:39:03;;;;;;;10.18;1.98;;;;;;;;;;5004197;28;20406;-59
2022/09/22 07:41:30;;;;;;;3.92;1.90;;;;;;;;;;5001164;28;20026;-59
2022/09/22 07:46:44;;;;;;;4.85;1.73;;;;;;;;;;5004203;28;20391;-59
2022/09/22 07:49:10;;;;;;;4.35;1.75;;;;;;;;;;5003080;28;20091;-59
2022/09/22 07:51:37;;;;;;;6.93;1.92;;;;;;;;;;5007129;28;20025;-59
2022/09/22 07:54:06;;;;;;;4.65;1.73;;;;;;;;;;5007780;28;20065;-60
2022/09/22 07:56:38;;;;;;;6.72;1.60;;;;;;;;;;5008156;28;20037;-60
2022/09/22 07:59:07;;;;;;;3.67;1.60;;;;;;;;;;5010825;28;20141;-59
2022/09/22 08:01:33;;;;;;;8.60;1.98;;;;;;;;;;5006553;28;20026;-59
2022/09/22 08:03:59;;;;;;;15.45;2.20;;;;;;;;;;5007728;28;20442;-59
2022/09/22 08:06:26;;;;;;;7.50;1.75;;;;;;;;;;5008390;28;20050;-59
2022/09/22 08:08:55;;;;;;;10.15;1.60;;;;;;;;;;5006601;28;20045;-59
2022/09/22 08:11:26;;;;;;;4.53;1.63;;;;;;;;;;5005934;28;20038;-59
2022/09/22 08:13:58;;;;;;;4.40;1.85;;;;;;;;;;5008551;28;20044;-60
2022/09/22 08:16:27;;;;;;;8.63;1.70;;;;;;;;;;5009499;28;20526;-60
2022/09/22 08:18:57;;;;;;;5.70;1.80;;;;;;;;;;5006268;28;20467;-59
2022/09/22 08:21:24;;;;;;;12.75;2.20;;;;;;;;;;5008303;28;20482;-59
2022/09/22 08:23:51;;;;;;;5.15;1.50;;;;;;;;;;5005277;28;20398;-60
2022/09/22 08:26:20;;;;;;;7.03;1.67;;;;;;;;;;5006183;28;20035;-60
2022/09/22 08:28:50;;;;;;;5.82;1.65;;;;;;;;;;5009301;28;20384;-60
2022/09/22 08:31:18;;;;;;;7.60;1.80;;;;;;;;;;5007420;28;20030;-59
2022/09/22 08:33:45;;;;;;;8.30;2.53;;;;;;;;;;5006380;28;20072;-59
2022/09/22 08:36:10;;;;;;;9.27;1.70;;;;;;;;;;4990239;28;20053;-58
2022/09/22 08:38:37;;;;;;;5.53;1.83;;;;;;;;;;4987590;28;20026;-59
2022/09/22 08:41:37;;;;;;;6.95;1.60;;;;;;;;;;4985680;28;20488;-60
2022/09/22 08:44:05;;;;;;;7.25;2.08;;;;;;;;;;4986025;28;20050;-60
2022/09/22 08:46:37;;;;;;;4.32;1.38;;;;;;;;;;4987254;28;20360;-60
2022/09/22 08:52:30;;;;;;;9.40;1.92;;;;;;;;;;4989475;28;20038;-59
2022/09/22 08:54:59;;;;;;;14.65;2.25;;;;;;;;;;4985880;28;20091;-59
2022/09/22 08:57:25;;;;;;;7.60;2.25;;;;;;;;;;4984090;28;20030;-60
2022/09/22 09:00:10;;;;;;;7.90;2.13;;;;;;;;;;4987062;28;20045;-60
2022/09/22 09:02:43;;;;;;;5.57;2.20;;;;;;;;;;4986295;28;20060;-60
2022/09/22 09:05:26;;;;;;;5.82;2.03;;;;;;;;;;4987210;28;20053;-60
2022/09/22 09:08:01;;;;;;;6.13;2.10;;;;;;;;;;4985224;28;20042;-60
2022/09/22 09:10:33;;;;;;;18.20;2.22;;;;;;;;;;5015232;28;20046;-60
2022/09/22 09:13:32;;;;;;;7.75;1.90;;;;;;;;;;5006911;28;20094;-60
2022/09/22 09:16:13;;;;;;;7.93;1.73;;;;;;;;;;4987661;28;20092;-61
2022/09/22 09:18:44;;;;;;;16.00;2.50;;;;;;;;;;4987683;28;20486;-59
2022/09/22 09:21:13;;;;;;;4.70;1.80;;;;;;;;;;4985915;28;20025;-60
2022/09/22 09:23:50;;;;;;;8.27;1.95;;;;;;;;;;4988726;28;20124;-59
2022/09/22 09:26:17;;;;;;;9.13;2.00;;;;;;;;;;4987556;28;20034;-59
2022/09/22 09:28:57;;;;;;;9.65;1.90;;;;;;;;;;4985194;28;20027;-59
2022/09/22 09:31:54;;;;;;;12.38;2.25;;;;;;;;;;4987241;28;20026;-59
2022/09/22 09:34:25;;;;;;;6.82;2.00;;;;;;;;;;4981462;28;20478;-59
2022/09/22 09:36:59;;;;;;;6.90;1.90;;;;;;;;;;4989163;28;20038;-59
2022/09/22 09:39:31;;;;;;;6.38;1.75;;;;;;;;;;4995743;28;20310;-60
2022/09/22 09:41:59;;;;;;;8.40;1.80;;;;;;;;;;5006330;28;20041;-60
2022/09/22 09:44:31;;;;;;;10.45;2.00;;;;;;;;;;5006640;28;20026;-60
2022/09/22 09:47:01;;;;;;;6.85;2.10;;;;;;;;;;5006874;28;20042;-59
2022/09/22 09:49:27;;;;;;;6.20;1.83;;;;;;;;;;5005954;28;20087;-59
2022/09/22 09:51:58;;;;;;;13.75;2.08;;;;;;;;;;5008101;28;20108;-59
2022/09/22 09:54:26;;;;;;;8.05;2.05;;;;;;;;;;5007907;28;20041;-59
2022/09/22 09:57:15;;;;;;;3.95;1.70;;;;;;;;;;5005789;28;20028;-59
2022/09/22 10:02:33;;;;;;;6.57;2.20;;;;;;;;;;5005549;28;20030;-60
2022/09/22 10:05:00;;;;;;;;;;;;;;;;;;5008352;28;20055;-60
2022/09/22 10:07:29;;;;;;;4.10;1.75;;;;;;;;;;5005833;28;19924;-60
2022/09/22 10:10:32;;;;;;;6.93;2.38;;;;;;;;;;5004972;28;20030;-60
2022/09/22 10:13:03;;;;;;;6.93;1.92;;;;;;;;;;5004901;28;20065;-60
2022/09/22 10:15:35;;;;;;;9.15;2.10;;;;;;;;;;5004980;28;20581;-59
2022/09/22 10:18:01;;;;;;;5.22;2.10;;;;;;;;;;5007282;28;20128;-60
2022/09/22 10:20:27;;;;;;;6.25;1.80;;;;;;;;;;5001473;28;20128;-60
2022/09/22 10:22:54;;;;;;;4.78;2.00;;;;;;;;;;5003616;28;20738;-60
2022/09/22 10:25:30;;;;;;;10.05;2.05;;;;;;;;;;5004054;28;20477;-60
2022/09/22 10:28:08;;;;;;;7.57;2.05;;;;;;;;;;5006287;28;20604;-60
2022/09/22 10:30:37;;;;;;;7.78;1.98;;;;;;;;;;4987789;28;20046;-60
2022/09/22 10:33:07;;;;;;;6.63;2.17;;;;;;;;;;4983403;28;20105;-59
2022/09/22 10:35:34;;;;;;;9.52;1.90;;;;;;;;;;4986995;28;20126;-59
2022/09/22 10:38:11;;;;;;;8.55;1.60;;;;;;;;;;4986752;28;20615;-60
2022/09/22 10:40:40;;;;;;;8.30;1.77;;;;;;;;;;4985419;28;20049;-60
2022/09/22 10:43:28;;;;;;;7.45;1.80;;;;;;;;;;4986427;28;20022;-60
2022/09/22 10:46:16;;;;;;;6.30;1.88;;;;;;;;;;4979760;28;20135;-59
2022/09/22 10:49:12;;;;;;;7.38;1.83;;;;;;;;;;4981458;28;20750;-60
2022/09/22 10:52:19;;;;;;;9.57;1.92;;;;;;;;;;4984191;28;20042;-59
2022/09/22 10:55:03;;;;;;;6.25;2.10;;;;;;;;;;4904393;29;20048;-60
2022/09/22 10:58:03;;;;;;;7.47;2.17;;;;;;;;;;4910413;29;20036;-58
2022/09/22 11:00:33;;;;;;;7.03;1.98;;;;;;;;;;4905919;29;20041;-59
2022/09/22 11:03:42;;;;;;;8.80;1.90;;;;;;;;;;4908140;29;20541;-59
2022/09/22 11:12:19;;;;;;;3.78;1.70;;;;;;;;;;4907889;29;20089;-59
2022/09/22 11:15:12;;;;;;;5.75;2.00;;;;;;;;;;4905048;29;20375;-60
2022/09/22 11:18:12;;;;;;;2.95;1.88;;;;;;;;;;4908884;29;20048;-60
2022/09/22 11:20:41;;;;;;;4.20;2.15;;;;;;;;;;4909822;29;20040;-59
2022/09/22 11:23:12;;;;;;;5.90;2.22;;;;;;;;;;4908338;29;20067;-59
2022/09/22 11:25:53;;;;;;;4.82;2.00;;;;;;;;;;4948922;28;20443;-60
2022/09/22 11:28:49;;;;;;;9.45;1.88;;;;;;;;;;4993797;28;20498;-59
2022/09/22 11:31:35;;;;;;;4.88;2.13;;;;;;;;;;5007021;28;20050;-59
2022/09/22 11:34:01;;;;;;;4.65;1.80;;;;;;;;;;5004757;28;20153;-59
2022/09/22 11:36:35;;;;;;;4.95;1.70;;;;;;;;;;4990345;28;20105;-59
2022/09/22 11:39:06;;;;;;;3.33;1.73;;;;;;;;;;4987949;28;20042;-59
2022/09/22 11:41:46;;;;;;;5.97;2.00;;;;;;;;;;4987934;28;20030;-60
2022/09/22 11:44:17;;;;;;;3.15;2.00;;;;;;;;;;4988635;28;20046;-59
2022/09/22 11:47:10;;;;;;;3.20;1.75;;;;;;;;;;4989606;28;20483;-59
2022/09/22 11:50:01;;;;;;;5.60;2.20;;;;;;;;;;4988490;28;20129;-59
2022/09/22 11:52:42;;;;;;;8.10;2.92;;;;;;;;;;4990803;28;21106;-59
2022/09/22 11:55:34;;;;;;;4.40;2.13;;;;;;;;;;4989953;28;20038;-59
2022/09/22 11:58:07;;;;;;;11.07;2.30;;;;;;;;;;4989002;28;20037;-59
2022/09/22 12:00:42;;;;;;;3.67;2.13;;;;;;;;;;5000443;28;20030;-59
2022/09/22 12:03:16;;;;;;;7.20;2.13;;;;;;;;;;5008976;28;20033;-60
2022/09/22 12:05:47;;;;;;;10.48;2.30;;;;;;;;;;5001930;28;20038;-59
2022/09/22 12:08:21;;;;;;;13.50;2.70;;;;;;;;;;5003324;28;20030;-59
2022/09/22 12:10:49;;;;;;;9.65;2.30;;;;;;;;;;5008059;28;20514;-59
2022/09/22 12:13:19;;;;;;;9.32;2.28;;;;;;;;;;5007931;28;20486;-59
2022/09/22 12:16:09;;;;;;;5.10;2.28;;;;;;;;;;5008058;28;20042;-59
2022/09/22 12:19:05;;;;;;;6.65;2.58;;;;;;;;;;5008526;28;20117;-59
2022/09/22 12:21:54;;;;;;;5.93;2.80;;;;;;;;;;5008219;28;20038;-60
2022/09/22 12:24:19;;;;;;;7.85;2.45;;;;;;;;;;5008944;28;20128;-59
2022/09/22 12:26:47;;;;;;;6.35;2.28;;;;;;;;;;5006090;28;20112;-60
2022/09/22 12:29:13;;;;;;;5.30;2.10;;;;;;;;;;5006577;28;20044;-59
2022/09/22 12:31:40;;;;;;;7.50;2.53;;;;;;;;;;5006326;28;20042;-59
2022/09/22 12:34:30;;;;;;;10.43;2.35;;;;;;;;;;5003385;28;20043;-59
2022/09/22 12:37:07;;;;;;;4.63;2.30;;;;;;;;;;5007894;28;20076;-59
2022/09/22 12:39:40;;;;;;;8.32;2.50;;;;;;;;;;5001148;28;20096;-59
2022/09/22 12:42:16;;;;;;;9.95;2.53;;;;;;;;;;5009738;28;20841;-59
2022/09/22 12:44:50;;;;;;;7.50;2.47;;;;;;;;;;5007376;28;20045;-59
2022/09/22 12:47:18;;;;;;;7.97;2.47;;;;;;;;;;5006392;28;20053;-60
2022/09/22 12:49:50;;;;;;;11.10;2.75;;;;;;;;;;4998967;28;20050;-60
2022/09/22 12:52:38;;;;;;;6.75;3.15;;;;;;;;;;4982669;28;20053;-59
2022/09/22 12:55:28;;;;;;;9.82;2.08;;;;;;;;;;4988242;28;20491;-59
2022/09/22 12:58:01;;;;;;;16.77;3.30;;;;;;;;;;4982550;28;20066;-59
2022/09/22 13:00:39;;;;;;;14.10;2.65;;;;;;;;;;4987333;28;20050;-59
2022/09/22 13:03:23;;;;;;;11.15;2.88;;;;;;;;;;4985278;28;20479;-60
2022/09/22 13:05:53;;;;;;;7.82;2.80;;;;;;;;;;4986590;28;20442;-60
2022/09/22 13:08:47;;;;;;;8.88;2.45;;;;;;;;;;4989152;28;20113;-60
2022/09/22 13:11:14;;;;;;;9.55;2.75;;;;;;;;;;4987455;28;20093;-58
2022/09/22 13:13:40;;;;;;;8.60;2.55;;;;;;;;;;4989256;28;20042;-58
2022/09/22 13:16:15;;;;;;;7.28;2.13;;;;;;;;;;5009753;28;20057;-58
2022/09/22 13:18:43;;;;;;;12.05;2.85;;;;;;;;;;5005224;28;20045;-59
2022/09/22 13:21:11;;;;;;;5.40;2.53;;;;;;;;;;5005893;28;20080;-59
2022/09/22 13:23:52;;;;;;;7.90;2.30;;;;;;;;;;5005004;28;20037;-58
2022/09/22 13:26:30;;;;;;;10.93;2.67;;;;;;;;;;5004314;28;20124;-57
2022/09/22 13:29:04;;;;;;;6.03;2.47;;;;;;;;;;5007193;28;20053;-58
2022/09/22 13:31:42;;;;;;;7.20;2.70;;;;;;;;;;5007407;28;20033;-56
2022/09/22 13:34:32;;;;;;;17.30;2.72;;;;;;;;;;5006909;28;20042;-59
2022/09/22 13:37:07;;;;;;;13.85;2.83;;;;;;;;;;5007116;28;20476;-60
2022/09/22 13:39:39;;;;;;;9.93;2.30;;;;;;;;;;5019771;28;20068;-59
2022/09/22 13:42:13;;;;;;;8.38;2.45;;;;;;;;;;5007144;28;20026;-60
2022/09/22 13:44:42;;;;;;;6.65;2.20;;;;;;;;;;5005784;28;20072;-59
2022/09/22 13:47:19;;;;;;;7.85;2.60;;;;;;;;;;5004234;28;20048;-60
2022/09/22 13:49:54;;;;;;;7.07;2.40;;;;;;;;;;5004578;28;20415;-59
2022/09/22 13:52:26;;;;;;;5.10;2.55;;;;;;;;;;5005574;28;20087;-60
2022/09/22 13:54:59;;;;;;;6.13;2.63;;;;;;;;;;5006202;28;20438;-59
2022/09/22 13:57:33;;;;;;;9.75;3.33;;;;;;;;;;5005537;28;20127;-60
2022/09/22 13:59:59;;;;;;;6.18;2.03;;;;;;;;;;5005306;28;20037;-60
2022/09/22 14:02:27;;;;;;;7.85;2.60;;;;;;;;;;5007311;28;20034;-60
2022/09/22 14:05:06;;;;;;;7.97;2.42;;;;;;;;;;5003916;28;20036;-59
2022/09/22 14:07:35;;;;;;;11.38;2.40;;;;;;;;;;5005313;28;20042;-59
2022/09/22 14:10:01;;;;;;;9.20;2.50;;;;;;;;;;5006951;28;20145;-60
2022/09/22 14:12:28;;;;;;;8.25;2.10;;;;;;;;;;5005674;28;20034;-59
2022/09/22 14:14:54;;;;;;;3.80;1.77;;;;;;;;;;5004198;28;20073;-59
2022/09/22 14:17:27;;;;;;;9.70;2.40;;;;;;;;;;5007861;28;20030;-59
2022/09/22 14:20:01;;;;;;;7.53;2.55;;;;;;;;;;5005194;28;20528;-59
2022/09/22 14:22:30;;;;;;;9.88;2.50;;;;;;;;;;5006055;28;20040;-59
2022/09/22 14:24:59;;;;;;;8.70;2.63;;;;;;;;;;5001908;28;20461;-59
2022/09/22 14:27:33;;;;;;;5.35;2.42;;;;;;;;;;5007593;28;20029;-59
2022/09/22 14:29:59;;;;;;;7.68;2.53;;;;;;;;;;5003506;28;20414;-60
2022/09/22 14:32:34;;;;;;;5.82;1.98;;;;;;;;;;5002852;28;20117;-59
2022/09/22 14:35:04;;;;;;;13.55;2.45;;;;;;;;;;5001334;28;20041;-60
2022/09/22 14:37:35;;;;;;;7.28;2.03;;;;;;;;;;5006317;28;20037;-59
2022/09/22 14:40:04;;;;;;;9.63;2.15;;;;;;;;;;5002238;28;20142;-57
2022/09/22 14:42:31;;;;;;;9.65;2.47;;;;;;;;;;5005131;28;20482;-58
2022/09/22 14:45:17;;;;;;;8.93;2.28;;;;;;;;;;5002923;28;20104;-58
2022/09/22 14:47:43;;;;;;;7.68;2.63;;;;;;;;;;4995310;28;20068;-57
2022/09/22 14:50:36;;;;;;;4.60;1.90;;;;;;;;;;4992917;28;20543;-54
2022/09/22 14:53:07;;;;;;;7.78;2.33;;;;;;;;;;4983199;28;20066;-57
2022/09/22 14:55:37;;;;;;;6.15;2.05;;;;;;;;;;4982564;28;20042;-59
2022/09/22 14:58:14;;;;;;;5.45;1.88;;;;;;;;;;4985429;28;20470;-60
2022/09/22 15:04:23;;;;;;;;;;;;;;;;;;4985150;28;20078;-60
2022/09/22 15:06:51;;;;;;;4.93;1.80;;;;;;;;;;4986629;28;19918;-58
2022/09/22 15:09:28;;;;;;;9.15;2.00;;;;;;;;;;4982651;28;20059;-60
2022/09/22 15:12:00;;;;;;;5.80;2.10;;;;;;;;;;4984526;28;20022;-59
2022/09/22 15:14:41;;;;;;;12.50;2.13;;;;;;;;;;4984054;28;20105;-60
2022/09/22 15:20:43;;;;;;;9.55;1.90;;;;;;;;;;4985611;28;20050;-60
2022/09/22 15:23:33;;;;;;;7.75;1.92;;;;;;;;;;4987546;28;20065;-63
2022/09/22 15:26:03;;;;;;;9.02;1.95;;;;;;;;;;4984007;28;20058;-60
2022/09/22 15:28:30;;;;;;;4.50;2.22;;;;;;;;;;4987308;28;20403;-60
2022/09/22 15:30:56;;;;;;;4.55;2.08;;;;;;;;;;4986303;28;20089;-60